Beersel, Belgium
Current Conditions -  °F | °C
As of 11:50 AM on Thursday 27 Nov 2014 (Local Time) from EBBR Reporting Station
Few Clouds Few Clouds  
Wind Chill: 50°   Ceiling: Unl
Heat Index: 50°   Visibility: 6mi
Dew Point: 46°   Wind: 3mph
Humidity: 87%   Direction: 140°SE
Pressure: 29.71"   Gusts: NA
Location:  50.77°N, 4.3°E
Report Text: EBBR 271050Z 14003KT 100V160 9999 FEW040 10/08 Q1006 NOSIG
Loading
Personal Weather Stations






























Interactive Weather Map New forecast layout! Learn more

10-Day Weather Forecast

Advertisements
Track Severe Weather on mobile